John H. — WAC6768 — position and weather

sailwx.info

Track history (hours):
 
Tides and Currents Weather Stations Pressure Air Temp Water Temp Dewpoint Dewpoint Depression Visibility Wind Speed Wind Dir Waves Ship Positions

John H.

Owner: CROSS SOUND FERRY SERVICE INC, NEW LOUDON, CT. More information available from US FCC via Universal Licensing System and Coast Guard Vessel Documentation Center.

Last reported at 2017-Jul-23 17:44 UTC. Time now 2017-Jul-23 18:45 UTC.
Position N 41°14' W 072°09'.

Length 70 m.

Type: Passenger vessel. MMSI: 366934890.

Date/timePositionNaut miles runAvg speedWind from/ knotsBaromVisibWave heightAir tempDewpointWater temp
2017-Jul-23 17:44N 41°14' W 072°09'1 0.8
2017-Jul-23 15:59N 41°13' W 072°11'2 0.8
2017-Jul-23 13:24N 41°12' W 072°13'1 0.5
2017-Jul-23 11:57N 41°12' W 072°13'8 0.7
2017-Jul-23 01:02N 41°18' W 072°05'113.1
2017-Jul-23 00:59N 41°17' W 072°06'612.0
2017-Jul-23 00:27N 41°13' W 072°11'4 3.4
2017-Jul-22 23:12N 41°09' W 072°14'210.1
2017-Jul-22 22:58N 41°11' W 072°13'4 1.7
2017-Jul-22 20:39N 41°14' W 072°09'215.3
2017-Jul-22 20:30N 41°12' W 072°11'2 1.9
2017-Jul-22 19:13N 41°10' W 072°14'210.6
2017-Jul-22 19:00N 41°12' W 072°12'6 2.9
2017-Jul-22 16:49N 41°16' W 072°06'615.3
2017-Jul-22 16:27N 41°12' W 072°11'1 1.0
2017-Jul-22 15:00N 41°12' W 072°13'3 1.2
2017-Jul-22 12:40N 41°14' W 072°10'211.5
2017-Jul-22 12:28N 41°12' W 072°12'3 0.3
2017-Jul-22 02:08N 41°09' W 072°14'110.4
2017-Jul-22 02:00N 41°10' W 072°14'713.1
2017-Jul-22 01:30N 41°15' W 072°08'4 2.5
2017-Jul-22 00:05N 41°18' W 072°05'113.2
2017-Jul-22 00:00N 41°17' W 072°06'611.9
2017-Jul-21 23:30N 41°13' W 072°11'4 3.6
2017-Jul-21 22:18N 41°09' W 072°14'310.7
2017-Jul-21 22:00N 41°12' W 072°12'7 3.8
2017-Jul-21 20:01N 41°17' W 072°05'013.2
2017-Jul-21 19:59N 41°17' W 072°05'713.9
2017-Jul-21 19:30N 41°12' W 072°12'3 2.3
2017-Jul-21 18:14N 41°10' W 072°13'310.3
2017-Jul-21 17:58N 41°12' W 072°12'3 1.2
2017-Jul-21 15:32N 41°14' W 072°09'016.0
2017-Jul-21 15:30N 41°13' W 072°10'1 0.6
2017-Jul-21 13:48N 41°13' W 072°11'1 0.6
2017-Jul-21 11:34N 41°14' W 072°09'5 0.5
2017-Jul-21 01:56N 41°09' W 072°13'511.2
2017-Jul-21 01:30N 41°14' W 072°10'2 1.2
2017-Jul-20 23:44N 41°15' W 072°08'412.1
2017-Jul-20 23:24N 41°12' W 072°12'1 0.9
2017-Jul-20 21:56N 41°12' W 072°13'3 1.5
2017-Jul-20 19:35N 41°14' W 072°09'5 3.7
2017-Jul-20 18:13N 41°09' W 072°13'210.8
2017-Jul-20 18:00N 41°12' W 072°13'4 1.5
2017-Jul-20 15:37N 41°14' W 072°09'215.9
2017-Jul-20 15:29N 41°13' W 072°11'1 0.7
2017-Jul-20 13:59N 41°12' W 072°12'9 4.4
2017-Jul-20 12:03N 41°19' W 072°05'113.1
2017-Jul-20 12:00N 41°18' W 072°05'812.6
2017-Jul-20 11:24N 41°12' W 072°11'4 0.4
2017-Jul-20 02:00N 41°09' W 072°14'511.3
2017-Jul-20 01:31N 41°14' W 072°10'4 2.3
2017-Jul-19 23:49N 41°17' W 072°06'413.3
2017-Jul-19 23:30N 41°13' W 072°10'5 3.6
2017-Jul-19 22:14N 41°09' W 072°13'310.8
2017-Jul-19 22:00N 41°12' W 072°13'3 1.2
2017-Jul-19 19:34N 41°14' W 072°10'5 3.9
2017-Jul-19 18:17N 41°09' W 072°13'7 3.0
2017-Jul-19 15:48N 41°15' W 072°07'2 0.6
2017-Jul-19 11:33N 41°14' W 072°10'213.3
2017-Jul-19 11:24N 41°12' W 072°12'3 0.3
2017-Jul-19 01:59N 41°09' W 072°14'510.6
2017-Jul-19 01:30N 41°14' W 072°10'4 2.1
2017-Jul-18 23:48N 41°16' W 072°06'413.8
2017-Jul-18 23:30N 41°13' W 072°10'2 1.6
2017-Jul-18 22:00N 41°12' W 072°13'2 0.5
2017-Jul-18 18:11N 41°10' W 072°14'313.3
2017-Jul-18 17:59N 41°13' W 072°12'3 0.2
2017-Jul-18 01:58N 41°09' W 072°13'510.8
2017-Jul-18 01:30N 41°14' W 072°10'6 3.9
2017-Jul-18 00:01N 41°18' W 072°05'013.5
2017-Jul-18 00:00N 41°18' W 072°05'714.1
2017-Jul-17 23:30N 41°13' W 072°11'1 0.5
2017-Jul-17 22:06N 41°12' W 072°12'213.4
2017-Jul-17 21:59N 41°13' W 072°11'1 0.4
2017-Jul-17 19:49N 41°14' W 072°10'3 1.5
2017-Jul-17 18:11N 41°12' W 072°13'3 1.2
2017-Jul-17 15:50N 41°14' W 072°09'2 1.4
2017-Jul-17 14:02N 41°12' W 072°12'211.6
2017-Jul-17 13:54N 41°13' W 072°10'2 0.6
2017-Jul-17 11:26N 41°12' W 072°12'3 0.3
2017-Jul-17 02:18N 41°09' W 072°13'310.1
2017-Jul-17 02:00N 41°12' W 072°12'612.0
2017-Jul-17 01:30N 41°17' W 072°06'1 0.7
2017-Jul-17 00:01N 41°17' W 072°05'014.1
2017-Jul-17 00:00N 41°17' W 072°05'714.9
2017-Jul-16 23:30N 41°12' W 072°12'3 2.7
2017-Jul-16 22:25N 41°09' W 072°14'511.3
2017-Jul-16 21:59N 41°13' W 072°11'3 1.5
2017-Jul-16 19:52N 41°15' W 072°08'512.4
2017-Jul-16 19:30N 41°12' W 072°12'2 2.0
2017-Jul-16 18:18N 41°10' W 072°14'413.6
2017-Jul-16 18:00N 41°14' W 072°11'4 1.6
2017-Jul-16 15:50N 41°15' W 072°07'513.7
2017-Jul-16 15:27N 41°12' W 072°12'0 0.2
2017-Jul-16 13:59N 41°12' W 072°12'2 0.9
2017-Jul-16 11:30N 41°13' W 072°10'5 0.5
2017-Jul-16 01:11N 41°09' W 072°13'211.2
2017-Jul-16 01:00N 41°12' W 072°13'9 4.3
2017-Jul-15 22:56N 41°18' W 072°05'614.3
2017-Jul-15 22:30N 41°13' W 072°10'1 0.6
2017-Jul-15 20:50N 41°13' W 072°11'1 0.5
2017-Jul-15 18:26N 41°12' W 072°12'1 0.7
2017-Jul-15 16:56N 41°12' W 072°13'2 0.4
2017-Jul-15 13:05N 41°11' W 072°14'212.5
2017-Jul-15 12:56N 41°12' W 072°12'7 0.6
2017-Jul-15 01:53N 41°17' W 072°06'513.6
2017-Jul-15 01:30N 41°13' W 072°10'5 3.9
2017-Jul-15 00:20N 41°09' W 072°13'410.8
2017-Jul-15 00:00N 41°13' W 072°12'2 0.9
2017-Jul-14 21:45N 41°14' W 072°10'4 2.5
2017-Jul-14 20:15N 41°11' W 072°13'313.0
2017-Jul-14 20:00N 41°14' W 072°11'4 1.0
2017-Jul-14 16:06N 41°10' W 072°14'213.3
2017-Jul-14 15:57N 41°12' W 072°13'3 1.3
2017-Jul-14 13:39N 41°14' W 072°09'213.7
2017-Jul-14 13:29N 41°12' W 072°12'1 0.7
2017-Jul-14 12:01N 41°12' W 072°13'111.8
2017-Jul-14 11:58N 41°12' W 072°12'5 0.5
2017-Jul-14 01:44N 41°16' W 072°07'313.3
2017-Jul-14 01:30N 41°13' W 072°10'4 3.1
2017-Jul-14 00:10N 41°10' W 072°14'211.1
2017-Jul-14 00:01N 41°12' W 072°13'2 1.0
2017-Jul-13 21:33N 41°13' W 072°10'114.6
2017-Jul-13 21:29N 41°13' W 072°11'1 0.6
2017-Jul-13 20:03N 41°12' W 072°12'111.9
2017-Jul-13 19:59N 41°13' W 072°12'  
Track history (hours):
 
Tides and Currents Weather Stations Pressure Air Temp Water Temp Dewpoint Dewpoint Depression Visibility Wind Speed Wind Dir Waves Ship Positions

John H.

Owner: CROSS SOUND FERRY SERVICE INC, NEW LOUDON, CT. More information available from US FCC via Universal Licensing System and Coast Guard Vessel Documentation Center.

Last reported at 2017-Jul-23 17:44 UTC. Time now 2017-Jul-23 18:45 UTC.
Position N 41°14' W 072°09'.

Length 70 m.

Type: Passenger vessel. MMSI: 366934890.

Date/timePositionNaut miles runAvg speedWind from/ knotsBaromVisibWave heightAir tempDewpointWater temp
2017-Jul-23 17:44N 41°14' W 072°09'1 0.8
2017-Jul-23 15:59N 41°13' W 072°11'2 0.8
2017-Jul-23 13:24N 41°12' W 072°13'1 0.5
2017-Jul-23 11:57N 41°12' W 072°13'8 0.7
2017-Jul-23 01:02N 41°18' W 072°05'113.1
2017-Jul-23 00:59N 41°17' W 072°06'612.0
2017-Jul-23 00:27N 41°13' W 072°11'4 3.4
2017-Jul-22 23:12N 41°09' W 072°14'210.1
2017-Jul-22 22:58N 41°11' W 072°13'4 1.7
2017-Jul-22 20:39N 41°14' W 072°09'215.3
2017-Jul-22 20:30N 41°12' W 072°11'2 1.9
2017-Jul-22 19:13N 41°10' W 072°14'210.6
2017-Jul-22 19:00N 41°12' W 072°12'6 2.9
2017-Jul-22 16:49N 41°16' W 072°06'615.3
2017-Jul-22 16:27N 41°12' W 072°11'1 1.0
2017-Jul-22 15:00N 41°12' W 072°13'3 1.2
2017-Jul-22 12:40N 41°14' W 072°10'211.5
2017-Jul-22 12:28N 41°12' W 072°12'3 0.3
2017-Jul-22 02:08N 41°09' W 072°14'110.4
2017-Jul-22 02:00N 41°10' W 072°14'713.1
2017-Jul-22 01:30N 41°15' W 072°08'4 2.5
2017-Jul-22 00:05N 41°18' W 072°05'113.2
2017-Jul-22 00:00N 41°17' W 072°06'611.9
2017-Jul-21 23:30N 41°13' W 072°11'4 3.6
2017-Jul-21 22:18N 41°09' W 072°14'310.7
2017-Jul-21 22:00N 41°12' W 072°12'7 3.8
2017-Jul-21 20:01N 41°17' W 072°05'013.2
2017-Jul-21 19:59N 41°17' W 072°05'713.9
2017-Jul-21 19:30N 41°12' W 072°12'3 2.3
2017-Jul-21 18:14N 41°10' W 072°13'310.3
2017-Jul-21 17:58N 41°12' W 072°12'3 1.2
2017-Jul-21 15:32N 41°14' W 072°09'016.0
2017-Jul-21 15:30N 41°13' W 072°10'1 0.6
2017-Jul-21 13:48N 41°13' W 072°11'1 0.6
2017-Jul-21 11:34N 41°14' W 072°09'5 0.5
2017-Jul-21 01:56N 41°09' W 072°13'511.2
2017-Jul-21 01:30N 41°14' W 072°10'2 1.2
2017-Jul-20 23:44N 41°15' W 072°08'412.1
2017-Jul-20 23:24N 41°12' W 072°12'1 0.9
2017-Jul-20 21:56N 41°12' W 072°13'3 1.5
2017-Jul-20 19:35N 41°14' W 072°09'5 3.7
2017-Jul-20 18:13N 41°09' W 072°13'210.8
2017-Jul-20 18:00N 41°12' W 072°13'4 1.5
2017-Jul-20 15:37N 41°14' W 072°09'215.9
2017-Jul-20 15:29N 41°13' W 072°11'1 0.7
2017-Jul-20 13:59N 41°12' W 072°12'9 4.4
2017-Jul-20 12:03N 41°19' W 072°05'113.1
2017-Jul-20 12:00N 41°18' W 072°05'812.6
2017-Jul-20 11:24N 41°12' W 072°11'4 0.4
2017-Jul-20 02:00N 41°09' W 072°14'511.3
2017-Jul-20 01:31N 41°14' W 072°10'4 2.3
2017-Jul-19 23:49N 41°17' W 072°06'413.3
2017-Jul-19 23:30N 41°13' W 072°10'5 3.6
2017-Jul-19 22:14N 41°09' W 072°13'310.8
2017-Jul-19 22:00N 41°12' W 072°13'3 1.2
2017-Jul-19 19:34N 41°14' W 072°10'5 3.9
2017-Jul-19 18:17N 41°09' W 072°13'7 3.0
2017-Jul-19 15:48N 41°15' W 072°07'2 0.6
2017-Jul-19 11:33N 41°14' W 072°10'213.3
2017-Jul-19 11:24N 41°12' W 072°12'3 0.3
2017-Jul-19 01:59N 41°09' W 072°14'510.6
2017-Jul-19 01:30N 41°14' W 072°10'4 2.1
2017-Jul-18 23:48N 41°16' W 072°06'413.8
2017-Jul-18 23:30N 41°13' W 072°10'2 1.6
2017-Jul-18 22:00N 41°12' W 072°13'2 0.5
2017-Jul-18 18:11N 41°10' W 072°14'313.3
2017-Jul-18 17:59N 41°13' W 072°12'3 0.2
2017-Jul-18 01:58N 41°09' W 072°13'510.8
2017-Jul-18 01:30N 41°14' W 072°10'6 3.9
2017-Jul-18 00:01N 41°18' W 072°05'013.5
2017-Jul-18 00:00N 41°18' W 072°05'714.1
2017-Jul-17 23:30N 41°13' W 072°11'1 0.5
2017-Jul-17 22:06N 41°12' W 072°12'213.4
2017-Jul-17 21:59N 41°13' W 072°11'1 0.4
2017-Jul-17 19:49N 41°14' W 072°10'3 1.5
2017-Jul-17 18:11N 41°12' W 072°13'3 1.2
2017-Jul-17 15:50N 41°14' W 072°09'2 1.4
2017-Jul-17 14:02N 41°12' W 072°12'211.6
2017-Jul-17 13:54N 41°13' W 072°10'2 0.6
2017-Jul-17 11:26N 41°12' W 072°12'3 0.3
2017-Jul-17 02:18N 41°09' W 072°13'310.1
2017-Jul-17 02:00N 41°12' W 072°12'612.0
2017-Jul-17 01:30N 41°17' W 072°06'1 0.7
2017-Jul-17 00:01N 41°17' W 072°05'014.1
2017-Jul-17 00:00N 41°17' W 072°05'714.9
2017-Jul-16 23:30N 41°12' W 072°12'3 2.7
2017-Jul-16 22:25N 41°09' W 072°14'511.3
2017-Jul-16 21:59N 41°13' W 072°11'3 1.5
2017-Jul-16 19:52N 41°15' W 072°08'512.4
2017-Jul-16 19:30N 41°12' W 072°12'2 2.0
2017-Jul-16 18:18N 41°10' W 072°14'413.6
2017-Jul-16 18:00N 41°14' W 072°11'4 1.6
2017-Jul-16 15:50N 41°15' W 072°07'513.7
2017-Jul-16 15:27N 41°12' W 072°12'0 0.2
2017-Jul-16 13:59N 41°12' W 072°12'2 0.9
2017-Jul-16 11:30N 41°13' W 072°10'5 0.5
2017-Jul-16 01:11N 41°09' W 072°13'211.2
2017-Jul-16 01:00N 41°12' W 072°13'9 4.3
2017-Jul-15 22:56N 41°18' W 072°05'614.3
2017-Jul-15 22:30N 41°13' W 072°10'1 0.6
2017-Jul-15 20:50N 41°13' W 072°11'1 0.5
2017-Jul-15 18:26N 41°12' W 072°12'1 0.7
2017-Jul-15 16:56N 41°12' W 072°13'2 0.4
2017-Jul-15 13:05N 41°11' W 072°14'212.5
2017-Jul-15 12:56N 41°12' W 072°12'7 0.6
2017-Jul-15 01:53N 41°17' W 072°06'513.6
2017-Jul-15 01:30N 41°13' W 072°10'5 3.9
2017-Jul-15 00:20N 41°09' W 072°13'410.8
2017-Jul-15 00:00N 41°13' W 072°12'2 0.9
2017-Jul-14 21:45N 41°14' W 072°10'4 2.5
2017-Jul-14 20:15N 41°11' W 072°13'313.0
2017-Jul-14 20:00N 41°14' W 072°11'4 1.0
2017-Jul-14 16:06N 41°10' W 072°14'213.3
2017-Jul-14 15:57N 41°12' W 072°13'3 1.3
2017-Jul-14 13:39N 41°14' W 072°09'213.7
2017-Jul-14 13:29N 41°12' W 072°12'1 0.7
2017-Jul-14 12:01N 41°12' W 072°13'111.8
2017-Jul-14 11:58N 41°12' W 072°12'5 0.5
2017-Jul-14 01:44N 41°16' W 072°07'313.3
2017-Jul-14 01:30N 41°13' W 072°10'4 3.1
2017-Jul-14 00:10N 41°10' W 072°14'211.1
2017-Jul-14 00:01N 41°12' W 072°13'2 1.0
2017-Jul-13 21:33N 41°13' W 072°10'114.6
2017-Jul-13 21:29N 41°13' W 072°11'1 0.6
2017-Jul-13 20:03N 41°12' W 072°12'111.9
2017-Jul-13 19:59N 41°13' W 072°12'  

Dump ship's entire track history